createdAt,value
2023-07-18T00:00:52.417Z,40.45
2023-07-18T00:03:20.279Z,40.81
2023-07-18T00:05:47.809Z,40.48
2023-07-18T00:08:15.576Z,40.78
2023-07-18T00:10:43.624Z,40.33
2023-07-18T00:13:10.885Z,41.32
2023-07-18T00:15:38.730Z,43.49
2023-07-18T00:18:05.922Z,42.74
2023-07-18T00:20:33.354Z,44.17
2023-07-18T00:23:00.734Z,42.97
2023-07-18T00:25:30.862Z,45.50
2023-07-18T00:27:57.929Z,46.88
2023-07-18T00:30:27.683Z,46.89
2023-07-18T00:32:56.436Z,48.76
2023-07-18T00:35:24.000Z,50.16
2023-07-18T00:37:51.241Z,49.25
2023-07-18T00:40:18.407Z,48.75
2023-07-18T00:42:50.969Z,47.36
2023-07-18T00:45:18.332Z,50.14
2023-07-18T00:47:48.610Z,50.49
2023-07-18T00:50:17.451Z,50.34
2023-07-18T00:52:48.539Z,50.87
2023-07-18T00:55:16.311Z,47.99
2023-07-18T00:57:45.921Z,50.78
2023-07-18T01:00:14.620Z,49.71
2023-07-18T01:02:43.446Z,48.04
2023-07-18T01:05:12.174Z,47.50
2023-07-18T01:07:39.531Z,48.36
2023-07-18T01:10:26.882Z,48.00
2023-07-18T01:13:04.854Z,49.82
2023-07-18T01:15:33.973Z,51.08
2023-07-18T01:18:08.297Z,48.97
2023-07-18T01:20:37.158Z,51.79
2023-07-18T01:23:05.558Z,49.12
2023-07-18T01:25:34.775Z,50.87
2023-07-18T01:28:04.911Z,50.11
2023-07-18T01:30:32.124Z,50.81
2023-07-18T01:32:59.570Z,50.42
2023-07-18T01:35:28.277Z,51.62
2023-07-18T01:37:57.581Z,52.44
2023-07-18T01:40:25.058Z,51.87
2023-07-18T01:42:56.317Z,51.88
2023-07-18T01:45:25.835Z,51.59
2023-07-18T01:47:53.362Z,54.05
2023-07-18T01:50:20.805Z,53.70
2023-07-18T01:52:49.142Z,54.96
2023-07-18T01:55:17.381Z,56.42
2023-07-18T01:57:46.779Z,54.90
2023-07-18T02:00:20.042Z,56.89
2023-07-18T02:02:49.571Z,55.56
2023-07-18T02:05:25.395Z,57.06
2023-07-18T02:07:53.252Z,55.46
2023-07-18T02:10:22.199Z,55.96
2023-07-18T02:12:51.228Z,55.51
2023-07-18T02:15:19.306Z,56.39
2023-07-18T02:17:47.128Z,57.06
2023-07-18T02:20:15.377Z,55.98
2023-07-18T02:22:44.084Z,56.84
2023-07-18T02:25:12.022Z,55.95
2023-07-18T02:27:41.452Z,57.16
2023-07-18T02:30:13.327Z,57.65
2023-07-18T02:32:43.256Z,59.29
2023-07-18T02:35:12.669Z,55.71
2023-07-18T02:37:39.879Z,56.02
2023-07-18T02:40:11.227Z,57.53
2023-07-18T02:42:39.507Z,56.39
2023-07-18T02:45:09.691Z,57.23
2023-07-18T02:47:37.340Z,57.25
2023-07-18T02:50:04.953Z,55.70
2023-07-18T02:52:32.744Z,55.92
2023-07-18T02:55:00.014Z,57.25
2023-07-18T02:57:27.504Z,57.15
2023-07-18T02:59:54.846Z,58.53
2023-07-18T03:02:22.237Z,56.35
2023-07-18T03:04:49.798Z,56.26
2023-07-18T03:07:18.777Z,56.96
2023-07-18T03:09:46.990Z,58.27
2023-07-18T03:12:14.601Z,58.67
2023-07-18T03:14:42.725Z,60.09
2023-07-18T03:17:10.111Z,60.86
2023-07-18T03:19:37.375Z,59.24
2023-07-18T03:22:05.564Z,58.48
2023-07-18T03:24:36.025Z,57.64
2023-07-18T03:27:04.403Z,57.03
2023-07-18T03:29:32.048Z,58.81
2023-07-18T03:32:02.780Z,59.91
2023-07-18T03:34:30.174Z,58.65
2023-07-18T03:36:57.538Z,58.13
2023-07-18T03:39:24.792Z,57.02
2023-07-18T03:41:52.310Z,57.72
2023-07-18T03:44:19.478Z,58.42
2023-07-18T03:46:46.881Z,59.87
2023-07-18T03:49:14.183Z,59.51
2023-07-18T03:51:41.440Z,60.61
2023-07-18T03:54:10.251Z,57.89
2023-07-18T03:56:37.950Z,58.37
2023-07-18T03:59:05.140Z,58.99
2023-07-18T04:01:32.447Z,59.59
2023-07-18T04:03:59.715Z,60.78
2023-07-18T04:06:26.873Z,58.70
2023-07-18T04:08:55.051Z,59.11
2023-07-18T04:11:22.446Z,60.04
2023-07-18T04:13:50.026Z,60.34
2023-07-18T04:16:17.494Z,57.62
2023-07-18T04:18:45.360Z,58.66
2023-07-18T04:21:12.640Z,58.00
2023-07-18T04:23:39.816Z,58.40
2023-07-18T04:26:10.400Z,58.43
2023-07-18T04:28:38.039Z,58.80
2023-07-18T04:31:05.665Z,59.79
2023-07-18T04:33:35.885Z,60.33
2023-07-18T04:36:03.576Z,60.98
2023-07-18T04:38:31.359Z,60.97
2023-07-18T04:40:59.222Z,61.57
2023-07-18T04:43:26.628Z,61.16
2023-07-18T04:45:53.780Z,62.25
2023-07-18T04:48:21.231Z,62.14
2023-07-18T04:50:53.370Z,63.49
2023-07-18T04:53:20.506Z,61.25
2023-07-18T04:55:52.062Z,59.34
2023-07-18T04:58:20.555Z,59.36
2023-07-18T05:00:47.689Z,59.93
2023-07-18T05:03:14.922Z,59.98
2023-07-18T05:05:45.253Z,57.59
2023-07-18T05:08:13.414Z,59.38
2023-07-18T05:10:41.930Z,58.77
2023-07-18T05:13:09.585Z,58.73
2023-07-18T05:15:37.465Z,60.30
2023-07-18T05:18:05.511Z,58.93
2023-07-18T05:20:33.140Z,58.29
2023-07-18T05:23:01.023Z,57.45
2023-07-18T05:25:31.040Z,55.76
2023-07-18T05:27:59.590Z,58.13
2023-07-18T05:30:28.060Z,57.90
2023-07-18T05:32:55.472Z,58.52
2023-07-18T05:35:22.735Z,57.61
2023-07-18T05:37:50.083Z,58.40
2023-07-18T05:40:21.805Z,58.73
2023-07-18T05:42:54.345Z,64.71
2023-07-18T05:45:21.692Z,57.68
2023-07-18T05:47:49.000Z,57.82
2023-07-18T05:50:17.867Z,59.02
2023-07-18T05:52:45.390Z,58.00
2023-07-18T05:55:15.359Z,58.46
2023-07-18T05:57:42.729Z,58.94
2023-07-18T06:00:13.320Z,57.83
2023-07-18T06:02:41.032Z,58.60
2023-07-18T06:05:09.382Z,58.41
2023-07-18T06:07:36.582Z,58.91
2023-07-18T06:10:04.882Z,59.95
2023-07-18T06:12:32.249Z,60.86
2023-07-18T06:14:59.690Z,59.19
2023-07-18T06:17:26.892Z,58.96
2023-07-18T06:19:54.188Z,56.56
2023-07-18T06:22:22.056Z,55.25
2023-07-18T06:24:49.417Z,55.92
2023-07-18T06:27:16.607Z,55.11
2023-07-18T06:29:45.859Z,54.28
2023-07-18T06:32:13.571Z,53.89
2023-07-18T06:34:42.260Z,55.51
2023-07-18T06:37:11.441Z,55.05
2023-07-18T06:39:39.574Z,55.37
2023-07-18T06:42:09.766Z,55.87
2023-07-18T06:44:37.034Z,51.60
2023-07-18T06:47:04.431Z,54.82
2023-07-18T06:49:32.262Z,53.11
2023-07-18T06:51:59.585Z,52.74
2023-07-18T06:54:26.726Z,50.61
2023-07-18T06:56:53.946Z,47.78
2023-07-18T06:59:21.109Z,49.95
2023-07-18T07:01:48.299Z,49.05
2023-07-18T07:04:16.598Z,50.22
2023-07-18T07:06:44.179Z,48.63
2023-07-18T07:09:14.596Z,50.96
2023-07-18T07:11:44.913Z,49.93
2023-07-18T07:14:12.826Z,51.13
2023-07-18T07:16:40.921Z,50.06
2023-07-18T07:19:08.928Z,50.33
2023-07-18T07:21:36.265Z,50.56
2023-07-18T07:24:03.695Z,51.39
2023-07-18T07:26:30.904Z,51.79
2023-07-18T07:28:58.084Z,50.82
2023-07-18T07:31:25.949Z,50.36
2023-07-18T07:33:53.877Z,50.62
2023-07-18T07:36:22.069Z,50.73
2023-07-18T07:38:49.742Z,51.52
2023-07-18T07:41:17.300Z,50.08
2023-07-18T07:43:44.760Z,48.84
2023-07-18T07:46:12.026Z,50.55
2023-07-18T07:48:41.609Z,48.96
2023-07-18T07:51:08.875Z,49.51
2023-07-18T07:53:36.095Z,45.57
2023-07-18T07:56:03.668Z,43.64
2023-07-18T07:58:31.169Z,41.95
2023-07-18T08:00:58.431Z,40.85
2023-07-18T08:03:25.654Z,40.05
2023-07-18T08:05:52.802Z,37.51
2023-07-18T08:08:19.952Z,37.32
2023-07-18T08:10:47.189Z,37.67
2023-07-18T08:13:18.109Z,37.94
2023-07-18T08:15:45.346Z,38.80
2023-07-18T08:18:12.516Z,38.90
2023-07-18T08:20:39.746Z,38.35
2023-07-18T08:23:07.288Z,37.25
2023-07-18T08:25:34.483Z,38.37
2023-07-18T08:28:03.296Z,38.26
2023-07-18T08:30:30.957Z,39.83
2023-07-18T08:32:58.193Z,37.88
2023-07-18T08:35:25.360Z,38.02
2023-07-18T08:37:52.565Z,37.25
2023-07-18T08:40:19.763Z,35.65
2023-07-18T08:42:48.432Z,36.16
2023-07-18T08:45:16.682Z,36.22
2023-07-18T08:47:45.050Z,36.13
2023-07-18T08:50:12.403Z,36.14
2023-07-18T08:52:40.804Z,36.76
2023-07-18T08:55:09.055Z,36.92
2023-07-18T08:57:36.963Z,37.19
2023-07-18T09:00:05.776Z,38.45
2023-07-18T09:02:33.775Z,38.49
2023-07-18T09:05:00.986Z,38.32
2023-07-18T09:07:28.599Z,38.58
2023-07-18T09:09:56.657Z,38.15
2023-07-18T09:12:23.844Z,36.39
2023-07-18T09:14:56.826Z,38.04
2023-07-18T09:17:24.049Z,37.72
2023-07-18T09:19:51.411Z,37.93
2023-07-18T09:22:18.574Z,37.70
2023-07-18T09:24:49.334Z,37.36
2023-07-18T09:27:19.788Z,37.50
2023-07-18T09:29:49.433Z,38.21
2023-07-18T09:32:20.873Z,36.92
2023-07-18T09:35:02.323Z,38.56
2023-07-18T09:37:29.874Z,38.15
2023-07-18T09:39:57.269Z,36.64
2023-07-18T09:42:25.700Z,37.63
2023-07-18T09:44:54.016Z,37.07
2023-07-18T09:47:21.837Z,37.87
2023-07-18T09:49:50.555Z,37.18
2023-07-18T09:52:23.340Z,38.85
2023-07-18T09:54:53.789Z,38.20
2023-07-18T09:57:22.673Z,37.21
2023-07-18T09:59:51.524Z,37.85
2023-07-18T10:02:18.843Z,39.32
2023-07-18T10:04:47.065Z,36.81
2023-07-18T10:07:14.611Z,38.12
2023-07-18T10:09:42.647Z,37.54
2023-07-18T10:12:11.108Z,39.49
2023-07-18T10:14:44.179Z,37.82
2023-07-18T10:17:26.147Z,37.32
2023-07-18T10:19:53.654Z,36.69
2023-07-18T10:22:32.260Z,38.69
2023-07-18T10:25:08.060Z,37.31
2023-07-18T10:27:38.295Z,38.09
2023-07-18T10:30:07.785Z,38.45
2023-07-18T10:32:38.432Z,38.06
2023-07-18T10:35:11.309Z,38.68
2023-07-18T10:37:42.936Z,37.29
2023-07-18T10:40:11.617Z,38.01
2023-07-18T10:42:43.779Z,37.90
2023-07-18T10:45:11.045Z,36.96
2023-07-18T10:47:38.795Z,36.95
2023-07-18T10:50:08.654Z,37.91
2023-07-18T10:52:36.188Z,37.82
2023-07-18T10:55:07.713Z,37.93
2023-07-18T10:57:37.149Z,37.84
2023-07-18T11:00:10.091Z,38.58
2023-07-18T11:02:42.598Z,37.74
2023-07-18T11:05:13.105Z,38.59
2023-07-18T11:07:46.818Z,38.40
2023-07-18T11:10:15.786Z,37.20
2023-07-18T11:12:44.499Z,38.43
2023-07-18T11:15:12.930Z,39.06
2023-07-18T11:17:40.347Z,38.02
2023-07-18T11:20:08.378Z,37.98
2023-07-18T11:22:36.886Z,38.15
2023-07-18T11:25:06.085Z,38.23
2023-07-18T11:27:33.813Z,39.25
2023-07-18T11:30:09.245Z,37.79
2023-07-18T11:32:41.862Z,37.10
2023-07-18T11:35:23.221Z,38.15
2023-07-18T11:37:54.779Z,36.74
2023-07-18T11:40:26.591Z,37.75
2023-07-18T11:42:58.983Z,37.27
2023-07-18T11:45:27.272Z,37.21
2023-07-18T11:47:56.725Z,37.82
2023-07-18T11:50:29.741Z,36.40
2023-07-18T11:52:59.478Z,36.92
2023-07-18T11:55:27.125Z,36.76
2023-07-18T11:57:55.217Z,37.97
2023-07-18T12:00:23.396Z,37.27
2023-07-18T12:02:50.891Z,37.18
2023-07-18T12:05:18.731Z,36.58
2023-07-18T12:07:46.857Z,38.11
2023-07-18T12:10:17.578Z,36.78
2023-07-18T12:12:46.104Z,37.27
2023-07-18T12:15:14.192Z,36.96
2023-07-18T12:17:42.016Z,36.06
2023-07-18T12:20:10.246Z,37.34
2023-07-18T12:22:38.831Z,34.92
2023-07-18T12:25:06.621Z,35.41
2023-07-18T12:27:35.325Z,36.01
2023-07-18T12:30:02.548Z,35.75
2023-07-18T12:32:32.294Z,34.56
2023-07-18T12:34:59.858Z,33.83
2023-07-18T12:37:27.015Z,35.58
2023-07-18T12:39:54.225Z,33.63
2023-07-18T12:42:21.416Z,34.95
2023-07-18T12:44:51.153Z,35.31
2023-07-18T12:47:18.300Z,34.01
2023-07-18T12:52:15.621Z,34.99
2023-07-18T12:54:42.775Z,33.61
2023-07-18T12:57:10.997Z,32.65
2023-07-18T12:59:38.248Z,32.72
2023-07-18T13:02:05.690Z,33.90
2023-07-18T13:04:32.966Z,34.79
2023-07-18T13:07:00.401Z,35.11
2023-07-18T13:09:27.668Z,35.27
2023-07-18T13:11:54.832Z,36.68
2023-07-18T13:14:22.100Z,34.96
2023-07-18T13:16:49.557Z,36.55
2023-07-18T13:19:17.330Z,34.94
2023-07-18T13:21:45.165Z,35.51
2023-07-18T13:24:12.397Z,36.01
2023-07-18T13:26:39.838Z,34.99
2023-07-18T13:29:07.264Z,35.05
2023-07-18T13:31:35.687Z,34.64
2023-07-18T13:34:04.061Z,35.00
2023-07-18T13:36:34.222Z,34.52
2023-07-18T13:39:02.019Z,36.74
2023-07-18T13:41:29.342Z,36.21
2023-07-18T13:43:56.516Z,35.58
2023-07-18T13:46:24.259Z,35.65
2023-07-18T13:48:53.179Z,40.13
2023-07-18T13:51:20.801Z,37.49
2023-07-18T13:53:48.128Z,39.75
2023-07-18T13:56:15.550Z,39.07
2023-07-18T13:58:42.719Z,39.16
2023-07-18T14:01:09.951Z,37.29
2023-07-18T14:03:37.353Z,39.57
2023-07-18T14:06:04.974Z,37.71
2023-07-18T14:08:33.842Z,38.16
2023-07-18T14:11:01.259Z,39.29
2023-07-18T14:13:28.394Z,38.79
2023-07-18T14:15:55.714Z,38.48
2023-07-18T14:18:23.175Z,37.03
2023-07-18T14:20:50.544Z,38.42
2023-07-18T14:23:18.605Z,35.44
2023-07-18T14:25:49.060Z,35.03
2023-07-18T14:28:17.326Z,33.86
2023-07-18T14:30:45.038Z,34.25
2023-07-18T14:33:17.840Z,32.10
2023-07-18T14:35:45.184Z,33.25
2023-07-18T14:38:12.370Z,31.42
2023-07-18T14:40:40.616Z,33.54
2023-07-18T14:43:10.125Z,31.96
2023-07-18T14:45:38.473Z,33.06
2023-07-18T14:48:09.569Z,31.07
2023-07-18T14:50:36.897Z,30.91
2023-07-18T14:53:05.252Z,31.13
2023-07-18T14:55:35.134Z,30.24
2023-07-18T14:58:05.204Z,29.56
2023-07-18T15:00:32.821Z,30.96
2023-07-18T15:03:00.258Z,30.63
2023-07-18T15:05:27.545Z,30.38
2023-07-18T15:07:54.742Z,29.76
2023-07-18T15:10:21.979Z,29.19
2023-07-18T15:12:49.767Z,28.61
2023-07-18T15:15:17.359Z,29.14
2023-07-18T15:17:46.301Z,29.48
2023-07-18T15:20:15.016Z,29.05
2023-07-18T15:22:43.151Z,29.89
2023-07-18T15:25:11.622Z,29.21
2023-07-18T15:27:41.964Z,30.68
2023-07-18T15:30:10.846Z,30.25
2023-07-18T15:32:39.955Z,31.16
2023-07-18T15:35:07.979Z,30.43
2023-07-18T15:37:35.654Z,29.97
2023-07-18T15:40:03.405Z,30.59
2023-07-18T15:42:33.406Z,30.76
2023-07-18T15:45:01.122Z,30.51
2023-07-18T15:47:28.460Z,31.33
2023-07-18T15:49:55.669Z,32.61
2023-07-18T15:52:27.514Z,32.42
2023-07-18T15:54:54.976Z,31.49
2023-07-18T15:57:23.269Z,28.22
2023-07-18T15:59:50.489Z,29.41
2023-07-18T16:02:17.763Z,29.51
2023-07-18T16:04:45.320Z,30.36
2023-07-18T16:07:12.552Z,29.54
2023-07-18T16:09:53.391Z,30.02
2023-07-18T16:12:20.657Z,29.26
2023-07-18T16:14:48.188Z,28.87
2023-07-18T16:17:16.035Z,28.12
2023-07-18T16:19:45.669Z,27.95
2023-07-18T16:22:13.119Z,28.45
2023-07-18T16:24:42.490Z,28.51
2023-07-18T16:27:09.691Z,29.16
2023-07-18T16:29:37.486Z,32.18
2023-07-18T16:32:05.210Z,28.67
2023-07-18T16:34:32.585Z,28.88
2023-07-18T16:36:59.765Z,28.44
2023-07-18T16:39:26.921Z,29.52
2023-07-18T16:41:54.173Z,29.42
2023-07-18T16:44:22.077Z,29.27
2023-07-18T16:46:49.559Z,30.11
2023-07-18T16:49:16.873Z,30.27
2023-07-18T16:51:44.207Z,29.76
2023-07-18T16:54:11.448Z,31.22
2023-07-18T16:56:38.601Z,29.97
2023-07-18T16:59:05.834Z,31.38
2023-07-18T17:01:33.220Z,30.20
2023-07-18T17:04:00.832Z,30.13
2023-07-18T17:06:28.097Z,29.63
2023-07-18T17:08:55.269Z,29.59
2023-07-18T17:11:22.529Z,29.82
2023-07-18T17:13:52.298Z,30.32
2023-07-18T17:16:19.973Z,30.07
2023-07-18T17:18:47.308Z,30.08
2023-07-18T17:21:14.475Z,30.41
2023-07-18T17:23:41.773Z,30.54
2023-07-18T17:26:10.070Z,31.02
2023-07-18T17:28:37.702Z,31.12
2023-07-18T17:31:05.037Z,31.16
2023-07-18T17:33:32.353Z,32.88
2023-07-18T17:35:59.678Z,34.15
2023-07-18T17:38:29.796Z,32.98
2023-07-18T17:40:57.294Z,35.18
2023-07-18T17:43:24.377Z,35.27
2023-07-18T17:45:51.845Z,37.82
2023-07-18T17:48:19.206Z,37.14
2023-07-18T17:50:46.352Z,35.96
2023-07-18T17:53:15.204Z,37.61
2023-07-18T17:55:44.289Z,36.39
2023-07-18T17:58:11.517Z,38.89
2023-07-18T18:00:38.717Z,38.74
2023-07-18T18:03:05.963Z,39.15
2023-07-18T18:05:45.146Z,40.96
2023-07-18T18:08:14.259Z,40.22
2023-07-18T18:10:42.634Z,40.61
2023-07-18T18:13:09.874Z,41.50
2023-07-18T18:15:41.143Z,38.67
2023-07-18T18:18:13.329Z,39.21
2023-07-18T18:20:40.646Z,41.21
2023-07-18T18:23:08.888Z,40.41
2023-07-18T18:25:38.551Z,40.85
2023-07-18T18:28:05.732Z,40.67
2023-07-18T18:30:33.141Z,41.06
2023-07-18T18:33:00.343Z,39.96
2023-07-18T18:35:29.800Z,40.83
2023-07-18T18:37:57.481Z,40.62
2023-07-18T18:40:24.759Z,41.31
2023-07-18T18:42:51.932Z,40.60
2023-07-18T18:45:19.256Z,40.15
2023-07-18T18:47:47.603Z,41.06
2023-07-18T18:50:18.757Z,43.97
2023-07-18T18:52:46.604Z,43.81
2023-07-18T18:55:19.562Z,43.48
2023-07-18T18:57:47.850Z,45.00
2023-07-18T19:00:15.963Z,45.34
2023-07-18T19:02:44.931Z,46.07
2023-07-18T19:05:12.618Z,45.40
2023-07-18T19:07:39.942Z,45.66
2023-07-18T19:10:07.399Z,45.50
2023-07-18T19:12:34.888Z,47.68
2023-07-18T19:15:02.074Z,47.17
2023-07-18T19:17:29.568Z,46.79
2023-07-18T19:19:56.826Z,47.42
2023-07-18T19:22:24.143Z,47.32
2023-07-18T19:24:51.850Z,48.28
2023-07-18T19:27:19.120Z,48.48
2023-07-18T19:29:46.375Z,48.25
2023-07-18T19:32:13.652Z,49.43
2023-07-18T19:34:44.840Z,51.36
2023-07-18T19:37:12.108Z,50.10
2023-07-18T19:39:39.328Z,49.56
2023-07-18T19:42:07.139Z,51.81
2023-07-18T19:44:35.598Z,50.92
2023-07-18T19:47:02.878Z,50.34
2023-07-18T19:49:30.142Z,48.56
2023-07-18T19:51:57.947Z,51.54
2023-07-18T19:54:26.089Z,52.48
2023-07-18T19:56:54.193Z,51.19
2023-07-18T19:59:21.433Z,51.65
2023-07-18T20:01:48.964Z,51.38
2023-07-18T20:04:16.300Z,50.89
2023-07-18T20:06:43.581Z,50.43
2023-07-18T20:09:10.754Z,51.76
2023-07-18T20:11:37.942Z,52.56
2023-07-18T20:14:05.071Z,52.83
2023-07-18T20:16:32.822Z,52.88
2023-07-18T20:19:02.839Z,52.55
2023-07-18T20:21:30.915Z,54.22
2023-07-18T20:23:58.269Z,54.68
2023-07-18T20:26:25.909Z,54.41
2023-07-18T20:28:53.059Z,52.72
2023-07-18T20:31:20.930Z,51.36
2023-07-18T20:33:48.508Z,54.10
2023-07-18T20:36:15.698Z,53.36
2023-07-18T20:38:44.091Z,53.58
2023-07-18T20:41:11.301Z,53.20
2023-07-18T20:43:38.521Z,54.53
2023-07-18T20:46:05.804Z,54.50
2023-07-18T20:48:35.881Z,53.89
2023-07-18T20:51:03.399Z,53.96
2023-07-18T20:53:30.696Z,52.84
2023-07-18T20:55:58.107Z,54.81
2023-07-18T20:58:25.321Z,54.96
2023-07-18T21:00:52.573Z,54.80
2023-07-18T21:03:19.744Z,54.93
2023-07-18T21:05:50.772Z,55.38
2023-07-18T21:08:18.731Z,55.69
2023-07-18T21:10:46.465Z,56.89
2023-07-18T21:13:13.699Z,55.13
2023-07-18T21:15:41.124Z,54.53
2023-07-18T21:18:08.356Z,55.88
2023-07-18T21:20:35.489Z,56.26
2023-07-18T21:23:05.568Z,55.33
2023-07-18T21:25:32.791Z,56.74
2023-07-18T21:28:00.133Z,56.55
2023-07-18T21:30:27.355Z,56.49
2023-07-18T21:32:54.596Z,57.09
2023-07-18T21:35:24.800Z,56.02
2023-07-18T21:37:52.291Z,56.53
2023-07-18T21:40:19.734Z,57.11
2023-07-18T21:42:49.040Z,57.79
2023-07-18T21:45:16.524Z,56.76
2023-07-18T21:47:43.966Z,59.91
2023-07-18T21:50:11.529Z,60.71
2023-07-18T21:52:38.765Z,58.47
2023-07-18T21:55:07.029Z,58.37
2023-07-18T21:57:34.282Z,58.21
2023-07-18T22:00:01.526Z,59.52
2023-07-18T22:02:33.276Z,58.61
2023-07-18T22:05:02.198Z,58.46
2023-07-18T22:07:31.152Z,58.38
2023-07-18T22:10:03.198Z,57.17
2023-07-18T22:12:30.591Z,56.00
2023-07-18T22:14:57.710Z,57.34
2023-07-18T22:17:24.994Z,57.60
2023-07-18T22:19:52.234Z,58.23
2023-07-18T22:22:19.403Z,57.31
2023-07-18T22:24:46.719Z,58.50
2023-07-18T22:27:14.014Z,57.56
2023-07-18T22:29:41.130Z,57.80
2023-07-18T22:32:09.130Z,56.77
2023-07-18T22:34:36.436Z,57.48
2023-07-18T22:37:03.924Z,57.44
2023-07-18T22:39:36.337Z,61.18
2023-07-18T22:42:18.901Z,60.31
2023-07-18T22:44:47.962Z,59.32
2023-07-18T22:47:16.260Z,62.49
2023-07-18T22:49:43.674Z,62.14
2023-07-18T22:52:18.804Z,62.13
2023-07-18T22:54:47.596Z,63.13
2023-07-18T22:57:15.594Z,62.03
2023-07-18T22:59:43.010Z,62.10
2023-07-18T23:02:10.161Z,60.85
2023-07-18T23:04:37.478Z,62.34
2023-07-18T23:07:05.520Z,61.37
2023-07-18T23:09:33.049Z,61.02
2023-07-18T23:12:00.151Z,62.36
2023-07-18T23:14:28.606Z,61.77
2023-07-18T23:16:56.879Z,61.31
2023-07-18T23:19:24.256Z,62.71
2023-07-18T23:21:51.736Z,62.81
2023-07-18T23:24:18.920Z,62.75
2023-07-18T23:26:46.393Z,61.59
2023-07-18T23:29:13.623Z,62.44
2023-07-18T23:31:40.743Z,63.10
2023-07-18T23:34:08.108Z,63.70
2023-07-18T23:36:35.281Z,62.42
2023-07-18T23:39:02.485Z,62.04
2023-07-18T23:41:29.764Z,62.17
2023-07-18T23:43:56.892Z,63.13
2023-07-18T23:46:24.088Z,61.39
2023-07-18T23:48:51.248Z,62.79
2023-07-18T23:51:18.727Z,62.45
2023-07-18T23:53:46.254Z,62.12
2023-07-18T23:56:13.438Z,63.45
2023-07-18T23:58:40.646Z,61.57
